sensor_id;sensor_type;location;lat;lon;timestamp;P1;durP1;ratioP1;P2;durP2;ratioP2
51296;SDS011;37380;45.186;9.792;2024-02-16T00:00:12;90.28;;;68.38;;
51296;SDS011;37380;45.186;9.792;2024-02-16T00:02:40;80.50;;;66.70;;
51296;SDS011;37380;45.186;9.792;2024-02-16T00:05:10;80.45;;;66.22;;
51296;SDS011;37380;45.186;9.792;2024-02-16T00:07:40;81.05;;;64.30;;
51296;SDS011;37380;45.186;9.792;2024-02-16T00:10:07;78.25;;;66.95;;
51296;SDS011;37380;45.186;9.792;2024-02-16T00:12:41;97.00;;;72.38;;
51296;SDS011;37380;45.186;9.792;2024-02-16T00:15:08;81.47;;;66.95;;
51296;SDS011;37380;45.186;9.792;2024-02-16T00:17:37;78.18;;;66.18;;
51296;SDS011;37380;45.186;9.792;2024-02-16T00:20:05;78.72;;;65.25;;
51296;SDS011;37380;45.186;9.792;2024-02-16T00:22:34;97.05;;;70.97;;
51296;SDS011;37380;45.186;9.792;2024-02-16T00:25:01;96.10;;;75.25;;
51296;SDS011;37380;45.186;9.792;2024-02-16T00:27:28;78.43;;;65.18;;
51296;SDS011;37380;45.186;9.792;2024-02-16T00:29:56;72.13;;;61.40;;
51296;SDS011;37380;45.186;9.792;2024-02-16T00:32:23;76.95;;;66.15;;
51296;SDS011;37380;45.186;9.792;2024-02-16T00:34:52;91.70;;;70.82;;
51296;SDS011;37380;45.186;9.792;2024-02-16T00:37:20;86.63;;;69.22;;
51296;SDS011;37380;45.186;9.792;2024-02-16T00:39:47;93.00;;;69.10;;
51296;SDS011;37380;45.186;9.792;2024-02-16T00:42:14;89.82;;;67.93;;
51296;SDS011;37380;45.186;9.792;2024-02-16T00:44:41;80.68;;;65.82;;
51296;SDS011;37380;45.186;9.792;2024-02-16T00:47:09;89.50;;;70.45;;
51296;SDS011;37380;45.186;9.792;2024-02-16T00:49:36;95.03;;;76.32;;
51296;SDS011;37380;45.186;9.792;2024-02-16T00:52:04;77.18;;;64.05;;
51296;SDS011;37380;45.186;9.792;2024-02-16T00:54:31;86.90;;;68.80;;
51296;SDS011;37380;45.186;9.792;2024-02-16T00:56:58;94.93;;;76.50;;
51296;SDS011;37380;45.186;9.792;2024-02-16T00:59:30;92.80;;;77.43;;
51296;SDS011;37380;45.186;9.792;2024-02-16T01:01:57;101.57;;;73.78;;
51296;SDS011;37380;45.186;9.792;2024-02-16T01:04:24;93.22;;;74.88;;
51296;SDS011;37380;45.186;9.792;2024-02-16T01:06:51;89.32;;;75.60;;
51296;SDS011;37380;45.186;9.792;2024-02-16T01:09:18;85.38;;;74.45;;
51296;SDS011;37380;45.186;9.792;2024-02-16T01:11:45;98.93;;;78.00;;
51296;SDS011;37380;45.186;9.792;2024-02-16T01:14:12;99.53;;;80.43;;
51296;SDS011;37380;45.186;9.792;2024-02-16T01:16:39;107.15;;;81.78;;
51296;SDS011;37380;45.186;9.792;2024-02-16T01:19:07;105.00;;;84.45;;
51296;SDS011;37380;45.186;9.792;2024-02-16T01:21:34;108.25;;;85.32;;
51296;SDS011;37380;45.186;9.792;2024-02-16T01:24:01;114.18;;;88.57;;
51296;SDS011;37380;45.186;9.792;2024-02-16T01:26:28;111.65;;;88.95;;
51296;SDS011;37380;45.186;9.792;2024-02-16T01:28:56;115.45;;;90.70;;
51296;SDS011;37380;45.186;9.792;2024-02-16T01:31:24;107.25;;;82.55;;
51296;SDS011;37380;45.186;9.792;2024-02-16T01:33:51;117.18;;;84.70;;
51296;SDS011;37380;45.186;9.792;2024-02-16T01:36:19;103.75;;;87.03;;
51296;SDS011;37380;45.186;9.792;2024-02-16T01:38:46;109.13;;;88.78;;
51296;SDS011;37380;45.186;9.792;2024-02-16T01:41:13;115.18;;;91.80;;
51296;SDS011;37380;45.186;9.792;2024-02-16T01:43:41;113.57;;;84.70;;
51296;SDS011;37380;45.186;9.792;2024-02-16T01:46:08;105.97;;;83.28;;
51296;SDS011;37380;45.186;9.792;2024-02-16T01:48:36;105.63;;;88.28;;
51296;SDS011;37380;45.186;9.792;2024-02-16T01:51:06;119.53;;;93.22;;
51296;SDS011;37380;45.186;9.792;2024-02-16T01:53:35;108.45;;;89.38;;
51296;SDS011;37380;45.186;9.792;2024-02-16T01:56:06;115.65;;;89.50;;
51296;SDS011;37380;45.186;9.792;2024-02-16T01:58:34;118.72;;;86.95;;
51296;SDS011;37380;45.186;9.792;2024-02-16T02:01:01;119.15;;;91.20;;
51296;SDS011;37380;45.186;9.792;2024-02-16T02:03:28;102.13;;;85.72;;
51296;SDS011;37380;45.186;9.792;2024-02-16T02:05:56;113.28;;;93.15;;
51296;SDS011;37380;45.186;9.792;2024-02-16T02:08:24;119.35;;;90.40;;
51296;SDS011;37380;45.186;9.792;2024-02-16T02:10:53;128.88;;;90.30;;
51296;SDS011;37380;45.186;9.792;2024-02-16T02:13:20;104.53;;;86.10;;
51296;SDS011;37380;45.186;9.792;2024-02-16T02:15:48;97.00;;;82.28;;
51296;SDS011;37380;45.186;9.792;2024-02-16T02:18:15;97.13;;;82.13;;
51296;SDS011;37380;45.186;9.792;2024-02-16T02:20:43;111.50;;;83.65;;
51296;SDS011;37380;45.186;9.792;2024-02-16T02:23:10;106.82;;;84.10;;
51296;SDS011;37380;45.186;9.792;2024-02-16T02:25:37;106.43;;;85.60;;
51296;SDS011;37380;45.186;9.792;2024-02-16T02:28:06;99.47;;;83.80;;
51296;SDS011;37380;45.186;9.792;2024-02-16T02:30:34;105.05;;;86.40;;
51296;SDS011;37380;45.186;9.792;2024-02-16T02:33:02;100.80;;;82.93;;
51296;SDS011;37380;45.186;9.792;2024-02-16T02:35:29;101.55;;;78.53;;
51296;SDS011;37380;45.186;9.792;2024-02-16T02:37:56;93.30;;;78.88;;
51296;SDS011;37380;45.186;9.792;2024-02-16T02:40:23;101.20;;;82.72;;
51296;SDS011;37380;45.186;9.792;2024-02-16T02:42:51;95.10;;;79.80;;
51296;SDS011;37380;45.186;9.792;2024-02-16T02:45:18;92.30;;;75.95;;
51296;SDS011;37380;45.186;9.792;2024-02-16T02:47:45;95.63;;;75.43;;
51296;SDS011;37380;45.186;9.792;2024-02-16T02:50:13;87.35;;;71.00;;
51296;SDS011;37380;45.186;9.792;2024-02-16T02:52:40;99.70;;;74.80;;
51296;SDS011;37380;45.186;9.792;2024-02-16T02:55:07;103.07;;;79.70;;
51296;SDS011;37380;45.186;9.792;2024-02-16T02:57:35;114.28;;;87.95;;
51296;SDS011;37380;45.186;9.792;2024-02-16T03:00:08;107.68;;;87.72;;
51296;SDS011;37380;45.186;9.792;2024-02-16T03:02:38;111.45;;;87.70;;
51296;SDS011;37380;45.186;9.792;2024-02-16T03:05:06;115.97;;;88.65;;
51296;SDS011;37380;45.186;9.792;2024-02-16T03:07:36;109.05;;;88.78;;
51296;SDS011;37380;45.186;9.792;2024-02-16T03:10:04;109.35;;;86.53;;
51296;SDS011;37380;45.186;9.792;2024-02-16T03:12:31;125.07;;;91.22;;
51296;SDS011;37380;45.186;9.792;2024-02-16T03:14:59;136.13;;;93.03;;
51296;SDS011;37380;45.186;9.792;2024-02-16T03:17:26;105.28;;;86.32;;
51296;SDS011;37380;45.186;9.792;2024-02-16T03:19:53;90.05;;;75.15;;
51296;SDS011;37380;45.186;9.792;2024-02-16T03:22:22;92.95;;;73.43;;
51296;SDS011;37380;45.186;9.792;2024-02-16T03:24:49;90.20;;;73.57;;
51296;SDS011;37380;45.186;9.792;2024-02-16T03:27:16;95.00;;;71.90;;
51296;SDS011;37380;45.186;9.792;2024-02-16T03:29:43;84.60;;;68.78;;
51296;SDS011;37380;45.186;9.792;2024-02-16T03:32:10;89.40;;;68.72;;
51296;SDS011;37380;45.186;9.792;2024-02-16T03:34:38;74.88;;;63.30;;
51296;SDS011;37380;45.186;9.792;2024-02-16T03:37:05;80.97;;;61.95;;
51296;SDS011;37380;45.186;9.792;2024-02-16T03:39:32;82.57;;;69.03;;
51296;SDS011;37380;45.186;9.792;2024-02-16T03:41:59;98.97;;;67.90;;
51296;SDS011;37380;45.186;9.792;2024-02-16T03:44:26;82.55;;;69.82;;
51296;SDS011;37380;45.186;9.792;2024-02-16T03:46:53;85.53;;;69.63;;
51296;SDS011;37380;45.186;9.792;2024-02-16T03:49:22;90.03;;;66.45;;
51296;SDS011;37380;45.186;9.792;2024-02-16T03:51:50;81.38;;;67.68;;
51296;SDS011;37380;45.186;9.792;2024-02-16T03:54:17;80.05;;;65.85;;
51296;SDS011;37380;45.186;9.792;2024-02-16T03:56:44;81.45;;;65.63;;
51296;SDS011;37380;45.186;9.792;2024-02-16T03:59:11;88.35;;;66.07;;
51296;SDS011;37380;45.186;9.792;2024-02-16T04:01:38;85.22;;;70.22;;
51296;SDS011;37380;45.186;9.792;2024-02-16T04:04:06;89.90;;;69.97;;
51296;SDS011;37380;45.186;9.792;2024-02-16T04:06:34;79.97;;;65.55;;
51296;SDS011;37380;45.186;9.792;2024-02-16T04:09:01;87.07;;;67.45;;
51296;SDS011;37380;45.186;9.792;2024-02-16T04:11:29;78.47;;;65.95;;
51296;SDS011;37380;45.186;9.792;2024-02-16T04:13:57;76.82;;;65.50;;
51296;SDS011;37380;45.186;9.792;2024-02-16T04:16:24;73.55;;;61.67;;
51296;SDS011;37380;45.186;9.792;2024-02-16T04:18:51;77.15;;;63.55;;
51296;SDS011;37380;45.186;9.792;2024-02-16T04:21:20;161.02;;;77.55;;
51296;SDS011;37380;45.186;9.792;2024-02-16T04:23:47;166.15;;;78.03;;
51296;SDS011;37380;45.186;9.792;2024-02-16T04:26:15;81.72;;;66.97;;
51296;SDS011;37380;45.186;9.792;2024-02-16T04:28:42;83.00;;;66.43;;
51296;SDS011;37380;45.186;9.792;2024-02-16T04:31:09;103.78;;;69.78;;
51296;SDS011;37380;45.186;9.792;2024-02-16T04:33:36;97.07;;;69.93;;
51296;SDS011;37380;45.186;9.792;2024-02-16T04:36:05;89.63;;;68.97;;
51296;SDS011;37380;45.186;9.792;2024-02-16T04:38:34;87.57;;;65.90;;
51296;SDS011;37380;45.186;9.792;2024-02-16T04:41:00;83.50;;;70.05;;
51296;SDS011;37380;45.186;9.792;2024-02-16T04:43:27;79.18;;;64.78;;
51296;SDS011;37380;45.186;9.792;2024-02-16T04:45:55;70.55;;;62.80;;
51296;SDS011;37380;45.186;9.792;2024-02-16T04:48:22;72.57;;;64.40;;
51296;SDS011;37380;45.186;9.792;2024-02-16T04:50:49;72.18;;;64.28;;
51296;SDS011;37380;45.186;9.792;2024-02-16T04:53:16;77.53;;;62.95;;
51296;SDS011;37380;45.186;9.792;2024-02-16T04:55:43;69.75;;;61.90;;
51296;SDS011;37380;45.186;9.792;2024-02-16T04:58:10;75.97;;;63.10;;
51296;SDS011;37380;45.186;9.792;2024-02-16T05:00:38;77.18;;;64.90;;
51296;SDS011;37380;45.186;9.792;2024-02-16T05:03:05;90.45;;;74.63;;
51296;SDS011;37380;45.186;9.792;2024-02-16T05:05:33;100.03;;;76.75;;
51296;SDS011;37380;45.186;9.792;2024-02-16T05:08:00;93.97;;;76.03;;
51296;SDS011;37380;45.186;9.792;2024-02-16T05:10:28;94.18;;;77.68;;
51296;SDS011;37380;45.186;9.792;2024-02-16T05:12:55;82.03;;;73.03;;
51296;SDS011;37380;45.186;9.792;2024-02-16T05:15:24;76.57;;;67.07;;
51296;SDS011;37380;45.186;9.792;2024-02-16T05:17:52;92.32;;;74.95;;
51296;SDS011;37380;45.186;9.792;2024-02-16T05:20:19;87.28;;;70.80;;
51296;SDS011;37380;45.186;9.792;2024-02-16T05:22:47;83.38;;;66.68;;
51296;SDS011;37380;45.186;9.792;2024-02-16T05:25:16;97.38;;;72.78;;
51296;SDS011;37380;45.186;9.792;2024-02-16T05:27:45;80.97;;;69.10;;
51296;SDS011;37380;45.186;9.792;2024-02-16T05:30:12;87.30;;;72.45;;
51296;SDS011;37380;45.186;9.792;2024-02-16T05:32:42;88.95;;;71.60;;
51296;SDS011;37380;45.186;9.792;2024-02-16T05:35:10;96.70;;;71.50;;
51296;SDS011;37380;45.186;9.792;2024-02-16T05:37:44;94.20;;;75.28;;
51296;SDS011;37380;45.186;9.792;2024-02-16T05:40:19;95.80;;;74.93;;
51296;SDS011;37380;45.186;9.792;2024-02-16T05:42:51;102.30;;;77.68;;
51296;SDS011;37380;45.186;9.792;2024-02-16T05:45:19;97.80;;;75.57;;
51296;SDS011;37380;45.186;9.792;2024-02-16T05:47:48;105.57;;;78.55;;
51296;SDS011;37380;45.186;9.792;2024-02-16T05:50:16;99.35;;;76.88;;
51296;SDS011;37380;45.186;9.792;2024-02-16T05:52:44;88.20;;;73.68;;
51296;SDS011;37380;45.186;9.792;2024-02-16T05:55:11;84.88;;;69.20;;
51296;SDS011;37380;45.186;9.792;2024-02-16T05:57:39;91.10;;;74.95;;
51296;SDS011;37380;45.186;9.792;2024-02-16T06:00:07;89.70;;;74.10;;
51296;SDS011;37380;45.186;9.792;2024-02-16T06:02:36;84.07;;;67.40;;
51296;SDS011;37380;45.186;9.792;2024-02-16T06:05:03;79.15;;;68.25;;
51296;SDS011;37380;45.186;9.792;2024-02-16T06:07:31;84.57;;;72.85;;
51296;SDS011;37380;45.186;9.792;2024-02-16T06:09:58;87.10;;;73.07;;
51296;SDS011;37380;45.186;9.792;2024-02-16T06:12:26;92.68;;;76.93;;
51296;SDS011;37380;45.186;9.792;2024-02-16T06:14:52;93.53;;;78.07;;
51296;SDS011;37380;45.186;9.792;2024-02-16T06:17:21;92.10;;;75.18;;
51296;SDS011;37380;45.186;9.792;2024-02-16T06:19:49;92.78;;;75.80;;
51296;SDS011;37380;45.186;9.792;2024-02-16T06:22:16;105.53;;;81.28;;
51296;SDS011;37380;45.186;9.792;2024-02-16T06:24:45;87.38;;;76.22;;
51296;SDS011;37380;45.186;9.792;2024-02-16T06:27:12;111.05;;;85.25;;
51296;SDS011;37380;45.186;9.792;2024-02-16T06:29:38;100.75;;;82.45;;
51296;SDS011;37380;45.186;9.792;2024-02-16T06:32:05;91.55;;;77.05;;
51296;SDS011;37380;45.186;9.792;2024-02-16T06:34:33;90.28;;;78.07;;
51296;SDS011;37380;45.186;9.792;2024-02-16T06:37:00;100.18;;;80.00;;
51296;SDS011;37380;45.186;9.792;2024-02-16T06:39:27;109.13;;;83.70;;
51296;SDS011;37380;45.186;9.792;2024-02-16T06:41:56;102.57;;;82.07;;
51296;SDS011;37380;45.186;9.792;2024-02-16T06:44:23;95.72;;;81.68;;
51296;SDS011;37380;45.186;9.792;2024-02-16T06:46:50;109.22;;;85.47;;
51296;SDS011;37380;45.186;9.792;2024-02-16T06:49:17;105.25;;;86.25;;
51296;SDS011;37380;45.186;9.792;2024-02-16T06:51:44;97.60;;;79.13;;
51296;SDS011;37380;45.186;9.792;2024-02-16T06:54:12;84.30;;;73.18;;
51296;SDS011;37380;45.186;9.792;2024-02-16T06:56:39;93.70;;;77.30;;
51296;SDS011;37380;45.186;9.792;2024-02-16T06:59:06;99.60;;;79.50;;
51296;SDS011;37380;45.186;9.792;2024-02-16T07:01:33;103.30;;;78.15;;
51296;SDS011;37380;45.186;9.792;2024-02-16T07:04:00;97.35;;;79.43;;
51296;SDS011;37380;45.186;9.792;2024-02-16T07:06:28;98.00;;;84.05;;
51296;SDS011;37380;45.186;9.792;2024-02-16T07:08:55;106.95;;;86.20;;
51296;SDS011;37380;45.186;9.792;2024-02-16T07:11:23;102.18;;;83.40;;
51296;SDS011;37380;45.186;9.792;2024-02-16T07:13:50;93.53;;;76.25;;
51296;SDS011;37380;45.186;9.792;2024-02-16T07:16:17;104.22;;;80.13;;
51296;SDS011;37380;45.186;9.792;2024-02-16T07:18:45;108.15;;;79.95;;
51296;SDS011;37380;45.186;9.792;2024-02-16T07:21:13;96.75;;;74.65;;
51296;SDS011;37380;45.186;9.792;2024-02-16T07:23:40;95.65;;;77.43;;
51296;SDS011;37380;45.186;9.792;2024-02-16T07:26:07;89.90;;;75.50;;
51296;SDS011;37380;45.186;9.792;2024-02-16T07:28:34;101.60;;;79.07;;
51296;SDS011;37380;45.186;9.792;2024-02-16T07:31:02;94.82;;;73.43;;
51296;SDS011;37380;45.186;9.792;2024-02-16T07:33:30;92.25;;;71.60;;
51296;SDS011;37380;45.186;9.792;2024-02-16T07:35:58;87.03;;;75.57;;
51296;SDS011;37380;45.186;9.792;2024-02-16T07:38:25;86.95;;;73.60;;
51296;SDS011;37380;45.186;9.792;2024-02-16T07:40:54;96.55;;;72.30;;
51296;SDS011;37380;45.186;9.792;2024-02-16T07:43:22;84.43;;;70.22;;
51296;SDS011;37380;45.186;9.792;2024-02-16T07:45:50;90.15;;;70.68;;
51296;SDS011;37380;45.186;9.792;2024-02-16T07:48:21;86.43;;;73.80;;
51296;SDS011;37380;45.186;9.792;2024-02-16T07:50:48;91.00;;;74.82;;
51296;SDS011;37380;45.186;9.792;2024-02-16T07:53:19;91.18;;;70.70;;
51296;SDS011;37380;45.186;9.792;2024-02-16T07:55:46;91.70;;;68.50;;
51296;SDS011;37380;45.186;9.792;2024-02-16T07:58:12;83.65;;;66.50;;
51296;SDS011;37380;45.186;9.792;2024-02-16T08:00:40;74.45;;;64.40;;
51296;SDS011;37380;45.186;9.792;2024-02-16T08:03:08;68.53;;;59.20;;
51296;SDS011;37380;45.186;9.792;2024-02-16T08:05:35;73.20;;;62.15;;
51296;SDS011;37380;45.186;9.792;2024-02-16T08:08:02;65.18;;;57.45;;
51296;SDS011;37380;45.186;9.792;2024-02-16T08:10:30;75.95;;;63.75;;
51296;SDS011;37380;45.186;9.792;2024-02-16T08:12:58;86.60;;;71.50;;
51296;SDS011;37380;45.186;9.792;2024-02-16T08:15:25;86.10;;;73.25;;
51296;SDS011;37380;45.186;9.792;2024-02-16T08:17:52;86.90;;;68.60;;
51296;SDS011;37380;45.186;9.792;2024-02-16T08:35:07;83.28;;;73.32;;
51296;SDS011;37380;45.186;9.792;2024-02-16T08:38:08;82.85;;;72.03;;
51296;SDS011;37380;45.186;9.792;2024-02-16T08:40:37;89.50;;;70.68;;
51296;SDS011;37380;45.186;9.792;2024-02-16T08:52:59;85.10;;;66.47;;
51296;SDS011;37380;45.186;9.792;2024-02-16T08:55:26;73.97;;;63.03;;
51296;SDS011;37380;45.186;9.792;2024-02-16T08:57:53;74.30;;;61.15;;
51296;SDS011;37380;45.186;9.792;2024-02-16T09:00:20;69.13;;;59.00;;
51296;SDS011;37380;45.186;9.792;2024-02-16T09:02:47;71.70;;;54.17;;
51296;SDS011;37380;45.186;9.792;2024-02-16T09:05:15;70.40;;;51.63;;
51296;SDS011;37380;45.186;9.792;2024-02-16T09:07:42;67.25;;;55.85;;
51296;SDS011;37380;45.186;9.792;2024-02-16T09:10:09;68.53;;;59.00;;
51296;SDS011;37380;45.186;9.792;2024-02-16T09:12:36;67.00;;;51.95;;
51296;SDS011;37380;45.186;9.792;2024-02-16T09:15:03;67.95;;;56.65;;
51296;SDS011;37380;45.186;9.792;2024-02-16T09:17:32;70.35;;;59.83;;
51296;SDS011;37380;45.186;9.792;2024-02-16T09:19:59;69.50;;;58.55;;
51296;SDS011;37380;45.186;9.792;2024-02-16T09:22:27;68.18;;;58.35;;
51296;SDS011;37380;45.186;9.792;2024-02-16T09:24:56;73.40;;;62.47;;
51296;SDS011;37380;45.186;9.792;2024-02-16T09:27:26;70.40;;;57.55;;
51296;SDS011;37380;45.186;9.792;2024-02-16T09:29:55;71.63;;;58.60;;
51296;SDS011;37380;45.186;9.792;2024-02-16T09:32:22;76.82;;;56.08;;
51296;SDS011;37380;45.186;9.792;2024-02-16T09:34:49;73.55;;;60.90;;
51296;SDS011;37380;45.186;9.792;2024-02-16T09:37:18;71.88;;;60.97;;
51296;SDS011;37380;45.186;9.792;2024-02-16T09:39:45;83.10;;;61.83;;
51296;SDS011;37380;45.186;9.792;2024-02-16T09:42:13;78.43;;;61.40;;
51296;SDS011;37380;45.186;9.792;2024-02-16T09:44:41;72.30;;;61.08;;
51296;SDS011;37380;45.186;9.792;2024-02-16T09:47:13;76.10;;;63.95;;
51296;SDS011;37380;45.186;9.792;2024-02-16T09:49:40;75.90;;;61.85;;
51296;SDS011;37380;45.186;9.792;2024-02-16T09:52:09;77.45;;;65.00;;
51296;SDS011;37380;45.186;9.792;2024-02-16T09:54:39;88.50;;;71.00;;
51296;SDS011;37380;45.186;9.792;2024-02-16T09:57:06;82.65;;;67.63;;
51296;SDS011;37380;45.186;9.792;2024-02-16T09:59:34;94.93;;;71.50;;
51296;SDS011;37380;45.186;9.792;2024-02-16T10:02:02;89.35;;;76.63;;
51296;SDS011;37380;45.186;9.792;2024-02-16T10:04:29;82.70;;;73.50;;
51296;SDS011;37380;45.186;9.792;2024-02-16T10:07:02;108.05;;;82.70;;
51296;SDS011;37380;45.186;9.792;2024-02-16T10:09:38;96.47;;;79.53;;
51296;SDS011;37380;45.186;9.792;2024-02-16T10:12:08;94.60;;;76.90;;
51296;SDS011;37380;45.186;9.792;2024-02-16T10:14:35;109.95;;;85.20;;
51296;SDS011;37380;45.186;9.792;2024-02-16T10:17:03;104.38;;;81.55;;
51296;SDS011;37380;45.186;9.792;2024-02-16T10:19:31;95.47;;;76.07;;
51296;SDS011;37380;45.186;9.792;2024-02-16T10:24:40;99.90;;;83.53;;
51296;SDS011;37380;45.186;9.792;2024-02-16T10:27:14;109.72;;;83.53;;
51296;SDS011;37380;45.186;9.792;2024-02-16T10:29:46;104.22;;;82.20;;
51296;SDS011;37380;45.186;9.792;2024-02-16T10:32:16;105.22;;;84.80;;
51296;SDS011;37380;45.186;9.792;2024-02-16T10:34:43;128.18;;;88.18;;
51296;SDS011;37380;45.186;9.792;2024-02-16T10:37:13;107.28;;;89.35;;
51296;SDS011;37380;45.186;9.792;2024-02-16T10:39:42;107.25;;;87.75;;
51296;SDS011;37380;45.186;9.792;2024-02-16T10:42:11;98.65;;;81.88;;
51296;SDS011;37380;45.186;9.792;2024-02-16T10:44:42;100.75;;;80.47;;
51296;SDS011;37380;45.186;9.792;2024-02-16T10:47:10;97.82;;;83.07;;
51296;SDS011;37380;45.186;9.792;2024-02-16T10:49:37;121.38;;;87.78;;
51296;SDS011;37380;45.186;9.792;2024-02-16T10:52:05;97.53;;;82.55;;
51296;SDS011;37380;45.186;9.792;2024-02-16T10:54:34;107.35;;;85.35;;
51296;SDS011;37380;45.186;9.792;2024-02-16T10:57:07;105.63;;;82.00;;
51296;SDS011;37380;45.186;9.792;2024-02-16T10:59:42;104.60;;;83.80;;
51296;SDS011;37380;45.186;9.792;2024-02-16T11:02:11;96.78;;;82.07;;
51296;SDS011;37380;45.186;9.792;2024-02-16T11:04:38;122.47;;;85.80;;
51296;SDS011;37380;45.186;9.792;2024-02-16T11:07:16;110.13;;;84.95;;
51296;SDS011;37380;45.186;9.792;2024-02-16T11:09:45;107.43;;;84.78;;
51296;SDS011;37380;45.186;9.792;2024-02-16T11:12:13;104.22;;;85.55;;
51296;SDS011;37380;45.186;9.792;2024-02-16T11:14:44;113.55;;;88.97;;
51296;SDS011;37380;45.186;9.792;2024-02-16T11:17:13;104.60;;;83.97;;
51296;SDS011;37380;45.186;9.792;2024-02-16T11:19:42;103.43;;;81.82;;
51296;SDS011;37380;45.186;9.792;2024-02-16T11:22:11;103.15;;;82.75;;
51296;SDS011;37380;45.186;9.792;2024-02-16T11:24:43;104.25;;;85.05;;
51296;SDS011;37380;45.186;9.792;2024-02-16T11:27:12;100.70;;;85.03;;
51296;SDS011;37380;45.186;9.792;2024-02-16T11:29:42;122.53;;;84.25;;
51296;SDS011;37380;45.186;9.792;2024-02-16T11:32:09;112.05;;;84.85;;
51296;SDS011;37380;45.186;9.792;2024-02-16T11:34:36;104.35;;;84.45;;
51296;SDS011;37380;45.186;9.792;2024-02-16T11:37:06;102.18;;;78.20;;
51296;SDS011;37380;45.186;9.792;2024-02-16T11:39:33;111.57;;;90.88;;
51296;SDS011;37380;45.186;9.792;2024-02-16T11:44:31;100.38;;;84.03;;
51296;SDS011;37380;45.186;9.792;2024-02-16T11:47:01;116.45;;;86.80;;
51296;SDS011;37380;45.186;9.792;2024-02-16T11:49:33;111.72;;;87.50;;
51296;SDS011;37380;45.186;9.792;2024-02-16T11:52:00;111.38;;;83.82;;
51296;SDS011;37380;45.186;9.792;2024-02-16T11:54:27;102.72;;;83.07;;
51296;SDS011;37380;45.186;9.792;2024-02-16T11:56:54;101.35;;;84.20;;
51296;SDS011;37380;45.186;9.792;2024-02-16T11:59:22;98.78;;;81.65;;
51296;SDS011;37380;45.186;9.792;2024-02-16T12:01:50;107.60;;;86.70;;
51296;SDS011;37380;45.186;9.792;2024-02-16T12:04:19;109.38;;;86.40;;
51296;SDS011;37380;45.186;9.792;2024-02-16T12:06:47;120.28;;;90.88;;
51296;SDS011;37380;45.186;9.792;2024-02-16T12:09:15;111.55;;;89.18;;
51296;SDS011;37380;45.186;9.792;2024-02-16T12:11:47;102.22;;;88.45;;
51296;SDS011;37380;45.186;9.792;2024-02-16T12:14:16;111.05;;;90.00;;
51296;SDS011;37380;45.186;9.792;2024-02-16T12:16:51;110.65;;;89.20;;
51296;SDS011;37380;45.186;9.792;2024-02-16T12:19:22;103.05;;;87.18;;
51296;SDS011;37380;45.186;9.792;2024-02-16T12:21:49;108.53;;;87.93;;
51296;SDS011;37380;45.186;9.792;2024-02-16T12:24:18;109.20;;;89.97;;
51296;SDS011;37380;45.186;9.792;2024-02-16T12:26:46;109.32;;;91.25;;
51296;SDS011;37380;45.186;9.792;2024-02-16T12:29:12;125.93;;;90.93;;
51296;SDS011;37380;45.186;9.792;2024-02-16T12:31:40;115.00;;;90.72;;
51296;SDS011;37380;45.186;9.792;2024-02-16T12:34:08;116.45;;;93.20;;
51296;SDS011;37380;45.186;9.792;2024-02-16T12:36:36;117.35;;;92.63;;
51296;SDS011;37380;45.186;9.792;2024-02-16T12:39:06;116.10;;;94.35;;
51296;SDS011;37380;45.186;9.792;2024-02-16T12:41:34;109.03;;;92.50;;
51296;SDS011;37380;45.186;9.792;2024-02-16T12:44:02;115.78;;;89.25;;
51296;SDS011;37380;45.186;9.792;2024-02-16T12:46:30;110.38;;;90.45;;
51296;SDS011;37380;45.186;9.792;2024-02-16T12:48:59;106.13;;;88.20;;
51296;SDS011;37380;45.186;9.792;2024-02-16T12:51:26;106.57;;;87.05;;
51296;SDS011;37380;45.186;9.792;2024-02-16T12:53:53;124.93;;;91.30;;
51296;SDS011;37380;45.186;9.792;2024-02-16T12:56:20;117.18;;;92.38;;
51296;SDS011;37380;45.186;9.792;2024-02-16T12:58:48;104.85;;;91.38;;
51296;SDS011;37380;45.186;9.792;2024-02-16T13:01:15;114.20;;;92.18;;
51296;SDS011;37380;45.186;9.792;2024-02-16T13:03:52;130.65;;;94.05;;
51296;SDS011;37380;45.186;9.792;2024-02-16T13:06:19;117.20;;;92.50;;
51296;SDS011;37380;45.186;9.792;2024-02-16T13:08:55;108.28;;;86.68;;
51296;SDS011;37380;45.186;9.792;2024-02-16T13:11:22;112.50;;;91.10;;
51296;SDS011;37380;45.186;9.792;2024-02-16T13:13:50;111.50;;;93.50;;
51296;SDS011;37380;45.186;9.792;2024-02-16T13:16:18;115.53;;;93.72;;
51296;SDS011;37380;45.186;9.792;2024-02-16T13:18:45;117.07;;;92.97;;
51296;SDS011;37380;45.186;9.792;2024-02-16T13:21:12;112.18;;;85.43;;
51296;SDS011;37380;45.186;9.792;2024-02-16T13:23:39;104.97;;;87.97;;
51296;SDS011;37380;45.186;9.792;2024-02-16T13:26:06;117.72;;;94.30;;
51296;SDS011;37380;45.186;9.792;2024-02-16T13:28:33;109.25;;;86.72;;
51296;SDS011;37380;45.186;9.792;2024-02-16T13:41:06;112.97;;;89.03;;
51296;SDS011;37380;45.186;9.792;2024-02-16T13:43:33;99.30;;;83.65;;
51296;SDS011;37380;45.186;9.792;2024-02-16T13:46:01;112.20;;;87.32;;
51296;SDS011;37380;45.186;9.792;2024-02-16T13:48:28;114.25;;;86.53;;
51296;SDS011;37380;45.186;9.792;2024-02-16T13:50:58;99.88;;;81.18;;
51296;SDS011;37380;45.186;9.792;2024-02-16T13:53:27;106.00;;;86.63;;
51296;SDS011;37380;45.186;9.792;2024-02-16T13:55:54;105.97;;;84.70;;
51296;SDS011;37380;45.186;9.792;2024-02-16T13:58:22;102.13;;;83.13;;
51296;SDS011;37380;45.186;9.792;2024-02-16T14:00:49;102.90;;;83.82;;
51296;SDS011;37380;45.186;9.792;2024-02-16T14:03:16;107.20;;;90.05;;
51296;SDS011;37380;45.186;9.792;2024-02-16T14:05:44;107.82;;;85.57;;
51296;SDS011;37380;45.186;9.792;2024-02-16T14:08:13;100.72;;;82.70;;
51296;SDS011;37380;45.186;9.792;2024-02-16T14:10:41;109.65;;;88.15;;
51296;SDS011;37380;45.186;9.792;2024-02-16T14:13:08;101.68;;;84.65;;
51296;SDS011;37380;45.186;9.792;2024-02-16T14:15:36;102.75;;;83.65;;
51296;SDS011;37380;45.186;9.792;2024-02-16T14:18:04;101.78;;;83.35;;
51296;SDS011;37380;45.186;9.792;2024-02-16T14:20:43;106.93;;;85.30;;
51296;SDS011;37380;45.186;9.792;2024-02-16T14:23:10;99.90;;;83.72;;
51296;SDS011;37380;45.186;9.792;2024-02-16T14:25:37;98.57;;;84.57;;
51296;SDS011;37380;45.186;9.792;2024-02-16T14:28:06;110.53;;;86.40;;
51296;SDS011;37380;45.186;9.792;2024-02-16T14:30:34;102.22;;;81.03;;
51296;SDS011;37380;45.186;9.792;2024-02-16T14:33:01;99.28;;;82.65;;
51296;SDS011;37380;45.186;9.792;2024-02-16T14:35:31;99.80;;;85.40;;
51296;SDS011;37380;45.186;9.792;2024-02-16T14:38:03;104.32;;;85.40;;
51296;SDS011;37380;45.186;9.792;2024-02-16T14:40:33;107.88;;;88.13;;
51296;SDS011;37380;45.186;9.792;2024-02-16T14:43:01;98.47;;;85.03;;
51296;SDS011;37380;45.186;9.792;2024-02-16T14:45:29;106.35;;;84.72;;
51296;SDS011;37380;45.186;9.792;2024-02-16T14:47:57;102.03;;;81.03;;
51296;SDS011;37380;45.186;9.792;2024-02-16T14:50:24;101.82;;;82.32;;
51296;SDS011;37380;45.186;9.792;2024-02-16T14:52:51;111.88;;;82.82;;
51296;SDS011;37380;45.186;9.792;2024-02-16T14:55:19;103.20;;;81.43;;
51296;SDS011;37380;45.186;9.792;2024-02-16T14:57:46;101.95;;;80.95;;
51296;SDS011;37380;45.186;9.792;2024-02-16T15:00:13;96.85;;;80.10;;